sensor_id;sensor_type;location;lat;lon;timestamp;pressure;altitude;pressure_sealevel;temperature;humidity
76201;BME280;64981;52.930;9.266;2023-08-01T00:00:48;99545.94;;;17.05;84.66
76201;BME280;64981;52.930;9.266;2023-08-01T00:03:13;99529.00;;;17.11;84.35
76201;BME280;64981;52.930;9.266;2023-08-01T00:05:40;99519.53;;;17.03;84.50
76201;BME280;64981;52.930;9.266;2023-08-01T00:08:11;99499.09;;;16.97;84.11
76201;BME280;64981;52.930;9.266;2023-08-01T00:10:39;99513.84;;;17.00;84.63
76201;BME280;64981;52.930;9.266;2023-08-01T00:13:05;99496.06;;;16.94;84.72
76201;BME280;64981;52.930;9.266;2023-08-01T00:15:31;99502.22;;;16.94;85.15
76201;BME280;64981;52.930;9.266;2023-08-01T00:17:57;99489.56;;;17.01;84.76
76201;BME280;64981;52.930;9.266;2023-08-01T00:20:22;99495.50;;;16.92;85.60
76201;BME280;64981;52.930;9.266;2023-08-01T00:22:48;99487.03;;;16.95;84.75
76201;BME280;64981;52.930;9.266;2023-08-01T00:25:13;99484.13;;;17.08;84.01
76201;BME280;64981;52.930;9.266;2023-08-01T00:27:39;99489.38;;;17.03;84.39
76201;BME280;64981;52.930;9.266;2023-08-01T00:30:06;99487.03;;;16.95;84.56
76201;BME280;64981;52.930;9.266;2023-08-01T00:32:31;99461.25;;;16.89;84.35
76201;BME280;64981;52.930;9.266;2023-08-01T00:34:57;99467.31;;;17.07;83.95
76201;BME280;64981;52.930;9.266;2023-08-01T00:37:23;99469.75;;;16.97;84.41
76201;BME280;64981;52.930;9.266;2023-08-01T00:39:48;99470.78;;;16.96;84.21
76201;BME280;64981;52.930;9.266;2023-08-01T00:42:14;99463.16;;;16.88;84.91
76201;BME280;64981;52.930;9.266;2023-08-01T00:44:40;99454.56;;;16.86;84.62
76201;BME280;64981;52.930;9.266;2023-08-01T00:47:06;99457.81;;;16.88;84.59
76201;BME280;64981;52.930;9.266;2023-08-01T00:49:32;99458.03;;;16.87;84.68
76201;BME280;64981;52.930;9.266;2023-08-01T00:51:58;99463.94;;;16.89;84.38
76201;BME280;64981;52.930;9.266;2023-08-01T00:54:25;99465.56;;;16.90;84.38
76201;BME280;64981;52.930;9.266;2023-08-01T00:56:51;99456.41;;;16.86;84.46
76201;BME280;64981;52.930;9.266;2023-08-01T00:59:17;99454.56;;;16.86;84.51
76201;BME280;64981;52.930;9.266;2023-08-01T01:01:43;99464.16;;;16.99;83.47
76201;BME280;64981;52.930;9.266;2023-08-01T01:04:08;99441.09;;;16.93;83.16
76201;BME280;64981;52.930;9.266;2023-08-01T01:09:16;99436.34;;;16.83;84.09
76201;BME280;64981;52.930;9.266;2023-08-01T01:11:44;99433.59;;;16.78;83.92
76201;BME280;64981;52.930;9.266;2023-08-01T01:14:10;99426.94;;;16.92;83.05
76201;BME280;64981;52.930;9.266;2023-08-01T01:16:35;99429.41;;;16.82;83.69
76201;BME280;64981;52.930;9.266;2023-08-01T01:19:01;99417.94;;;16.82;83.53
76201;BME280;64981;52.930;9.266;2023-08-01T01:21:29;99422.88;;;16.90;83.20
76201;BME280;64981;52.930;9.266;2023-08-01T01:23:55;99412.22;;;16.90;83.06
76201;BME280;64981;52.930;9.266;2023-08-01T01:26:21;99390.22;;;16.71;83.40
76201;BME280;64981;52.930;9.266;2023-08-01T01:28:48;99408.56;;;16.79;83.61
76201;BME280;64981;52.930;9.266;2023-08-01T01:31:15;99386.41;;;16.67;83.63
76201;BME280;64981;52.930;9.266;2023-08-01T01:33:41;99371.00;;;16.57;83.59
76201;BME280;64981;52.930;9.266;2023-08-01T01:36:07;99394.75;;;16.70;83.82
76201;BME280;64981;52.930;9.266;2023-08-01T01:38:32;99406.22;;;16.71;84.00
76201;BME280;64981;52.930;9.266;2023-08-01T01:40:58;99388.03;;;16.68;83.77
76201;BME280;64981;52.930;9.266;2023-08-01T01:43:23;99392.44;;;16.74;83.85
76201;BME280;64981;52.930;9.266;2023-08-01T01:45:49;99401.47;;;16.73;83.81
76201;BME280;64981;52.930;9.266;2023-08-01T01:48:14;99385.16;;;16.69;83.47
76201;BME280;64981;52.930;9.266;2023-08-01T01:50:40;99382.81;;;16.61;83.88
76201;BME280;64981;52.930;9.266;2023-08-01T01:53:05;99384.44;;;16.62;84.00
76201;BME280;64981;52.930;9.266;2023-08-01T01:55:31;99372.94;;;16.74;83.55
76201;BME280;64981;52.930;9.266;2023-08-01T01:57:57;99365.88;;;16.67;83.31
76201;BME280;64981;52.930;9.266;2023-08-01T02:00:22;99380.94;;;16.74;83.38
76201;BME280;64981;52.930;9.266;2023-08-01T02:02:48;99374.47;;;16.69;83.81
76201;BME280;64981;52.930;9.266;2023-08-01T02:05:13;99370.09;;;16.63;83.90
76201;BME280;64981;52.930;9.266;2023-08-01T02:07:39;99346.34;;;16.39;84.44
76201;BME280;64981;52.930;9.266;2023-08-01T02:10:05;99366.47;;;16.58;84.32
76201;BME280;64981;52.930;9.266;2023-08-01T02:12:31;99365.41;;;16.70;83.33
76201;BME280;64981;52.930;9.266;2023-08-01T02:14:57;99339.59;;;16.59;83.55
76201;BME280;64981;52.930;9.266;2023-08-01T02:17:23;99357.31;;;16.65;83.80
76201;BME280;64981;52.930;9.266;2023-08-01T02:19:49;99349.44;;;16.59;83.78
76201;BME280;64981;52.930;9.266;2023-08-01T02:22:15;99347.38;;;16.49;83.81
76201;BME280;64981;52.930;9.266;2023-08-01T02:24:40;99363.69;;;16.64;83.39
76201;BME280;64981;52.930;9.266;2023-08-01T02:27:06;99312.38;;;16.46;83.23
76201;BME280;64981;52.930;9.266;2023-08-01T02:29:31;99349.44;;;16.59;83.58
76201;BME280;64981;52.930;9.266;2023-08-01T02:31:57;99348.63;;;16.58;83.46
76201;BME280;64981;52.930;9.266;2023-08-01T02:34:22;99342.97;;;16.55;83.77
76201;BME280;64981;52.930;9.266;2023-08-01T02:36:48;99335.22;;;16.53;83.78
76201;BME280;64981;52.930;9.266;2023-08-01T02:39:14;99329.63;;;16.55;84.04
76201;BME280;64981;52.930;9.266;2023-08-01T02:41:39;99331.38;;;16.49;83.79
76201;BME280;64981;52.930;9.266;2023-08-01T02:44:05;99320.25;;;16.52;84.01
76201;BME280;64981;52.930;9.266;2023-08-01T02:46:30;99319.91;;;16.60;83.29
76201;BME280;64981;52.930;9.266;2023-08-01T02:48:56;99313.75;;;16.60;83.06
76201;BME280;64981;52.930;9.266;2023-08-01T02:51:22;99322.28;;;16.74;82.70
76201;BME280;64981;52.930;9.266;2023-08-01T02:53:47;99317.09;;;16.67;83.21
76201;BME280;64981;52.930;9.266;2023-08-01T02:56:13;99310.03;;;16.61;83.75
76201;BME280;64981;52.930;9.266;2023-08-01T02:58:38;99308.31;;;16.66;83.33
76201;BME280;64981;52.930;9.266;2023-08-01T03:01:07;99299.72;;;16.64;83.32
76201;BME280;64981;52.930;9.266;2023-08-01T03:03:35;99312.34;;;16.69;83.34
76201;BME280;64981;52.930;9.266;2023-08-01T03:06:02;99305.63;;;16.66;83.22
76201;BME280;64981;52.930;9.266;2023-08-01T03:08:27;99287.56;;;16.57;83.65
76201;BME280;64981;52.930;9.266;2023-08-01T03:10:54;99299.63;;;16.59;83.82
76201;BME280;64981;52.930;9.266;2023-08-01T03:13:20;99285.47;;;16.59;84.01
76201;BME280;64981;52.930;9.266;2023-08-01T03:15:46;99274.84;;;16.47;84.15
76201;BME280;64981;52.930;9.266;2023-08-01T03:18:11;99284.66;;;16.58;83.81
76201;BME280;64981;52.930;9.266;2023-08-01T03:20:37;99285.69;;;16.57;83.65
76201;BME280;64981;52.930;9.266;2023-08-01T03:23:03;99291.22;;;16.67;83.17
76201;BME280;64981;52.930;9.266;2023-08-01T03:25:29;99285.69;;;16.69;83.42
76201;BME280;64981;52.930;9.266;2023-08-01T03:27:56;99296.81;;;16.66;83.31
76201;BME280;64981;52.930;9.266;2023-08-01T03:30:21;99294.50;;;16.69;83.09
76201;BME280;64981;52.930;9.266;2023-08-01T03:32:48;99299.22;;;16.67;83.08
76201;BME280;64981;52.930;9.266;2023-08-01T03:35:13;99278.50;;;16.58;83.19
76201;BME280;64981;52.930;9.266;2023-08-01T03:37:40;99288.69;;;16.61;83.31
76201;BME280;64981;52.930;9.266;2023-08-01T03:40:06;99292.66;;;16.58;83.46
76201;BME280;64981;52.930;9.266;2023-08-01T03:42:37;99290.41;;;16.67;83.19
76201;BME280;64981;52.930;9.266;2023-08-01T03:45:03;99289.78;;;16.60;82.89
76201;BME280;64981;52.930;9.266;2023-08-01T03:47:29;99304.94;;;16.59;83.46
76201;BME280;64981;52.930;9.266;2023-08-01T03:49:55;99305.28;;;16.51;83.84
76201;BME280;64981;52.930;9.266;2023-08-01T03:52:21;99292.44;;;16.48;83.83
76201;BME280;64981;52.930;9.266;2023-08-01T03:54:48;99291.41;;;16.49;83.47
76201;BME280;64981;52.930;9.266;2023-08-01T03:57:14;99310.28;;;16.59;83.27
76201;BME280;64981;52.930;9.266;2023-08-01T03:59:41;99311.31;;;16.58;83.33
76201;BME280;64981;52.930;9.266;2023-08-01T04:02:06;99314.22;;;16.57;83.38
76201;BME280;64981;52.930;9.266;2023-08-01T04:04:32;99302.72;;;16.68;82.86
76201;BME280;64981;52.930;9.266;2023-08-01T04:06:57;99293.13;;;16.55;82.77
76201;BME280;64981;52.930;9.266;2023-08-01T04:09:23;99280.75;;;16.49;82.88
76201;BME280;64981;52.930;9.266;2023-08-01T04:11:48;99301.81;;;16.62;82.50
76201;BME280;64981;52.930;9.266;2023-08-01T04:14:14;99297.28;;;16.63;82.78
76201;BME280;64981;52.930;9.266;2023-08-01T04:16:39;99285.25;;;16.60;82.48
76201;BME280;64981;52.930;9.266;2023-08-01T04:19:05;99295.44;;;16.63;82.58
76201;BME280;64981;52.930;9.266;2023-08-01T04:21:31;99295.09;;;16.60;82.44
76201;BME280;64981;52.930;9.266;2023-08-01T04:23:56;99302.75;;;16.56;82.81
76201;BME280;64981;52.930;9.266;2023-08-01T04:26:22;99303.69;;;16.50;83.47
76201;BME280;64981;52.930;9.266;2023-08-01T04:28:47;99304.03;;;16.42;84.22
76201;BME280;64981;52.930;9.266;2023-08-01T04:31:13;99296.25;;;16.52;83.82
76201;BME280;64981;52.930;9.266;2023-08-01T04:33:39;99302.16;;;16.54;83.66
76201;BME280;64981;52.930;9.266;2023-08-01T04:36:04;99301.25;;;16.60;83.34
76201;BME280;64981;52.930;9.266;2023-08-01T04:38:30;99289.50;;;16.61;83.05
76201;BME280;64981;52.930;9.266;2023-08-01T04:40:57;99274.72;;;16.54;82.84
76201;BME280;64981;52.930;9.266;2023-08-01T04:43:24;99280.16;;;16.59;82.51
76201;BME280;64981;52.930;9.266;2023-08-01T04:45:51;99294.09;;;16.78;81.73
76201;BME280;64981;52.930;9.266;2023-08-01T04:48:17;99297.72;;;16.72;81.96
76201;BME280;64981;52.930;9.266;2023-08-01T04:50:42;99299.34;;;16.73;82.06
76201;BME280;64981;52.930;9.266;2023-08-01T04:53:08;99292.06;;;16.68;81.91
76201;BME280;64981;52.930;9.266;2023-08-01T04:55:33;99302.38;;;16.64;82.42
76201;BME280;64981;52.930;9.266;2023-08-01T04:57:59;99274.25;;;16.45;83.10
76201;BME280;64981;52.930;9.266;2023-08-01T05:00:25;99290.81;;;16.59;82.57
76201;BME280;64981;52.930;9.266;2023-08-01T05:02:50;99300.53;;;16.65;82.73
76201;BME280;64981;52.930;9.266;2023-08-01T05:05:16;99299.00;;;16.69;82.47
76201;BME280;64981;52.930;9.266;2023-08-01T05:07:42;99300.13;;;16.73;82.19
76201;BME280;64981;52.930;9.266;2023-08-01T05:10:08;99302.03;;;16.73;82.22
76201;BME280;64981;52.930;9.266;2023-08-01T05:12:34;99302.03;;;16.73;82.37
76201;BME280;64981;52.930;9.266;2023-08-01T05:15:00;99307.00;;;16.69;82.75
76201;BME280;64981;52.930;9.266;2023-08-01T05:17:26;99308.00;;;16.80;82.44
76201;BME280;64981;52.930;9.266;2023-08-01T05:19:52;99300.38;;;16.72;82.37
76201;BME280;64981;52.930;9.266;2023-08-01T05:22:19;99304.50;;;16.91;81.59
76201;BME280;64981;52.930;9.266;2023-08-01T05:24:45;99307.88;;;16.86;81.71
76201;BME280;64981;52.930;9.266;2023-08-01T05:27:11;99306.97;;;16.81;81.96
76201;BME280;64981;52.930;9.266;2023-08-01T05:29:38;99304.31;;;16.81;82.34
76201;BME280;64981;52.930;9.266;2023-08-01T05:32:03;99298.31;;;17.02;81.11
76201;BME280;64981;52.930;9.266;2023-08-01T05:34:29;99300.13;;;16.85;81.75
76201;BME280;64981;52.930;9.266;2023-08-01T05:36:54;99302.19;;;16.83;81.86
76201;BME280;64981;52.930;9.266;2023-08-01T05:39:20;99272.81;;;16.66;81.96
76201;BME280;64981;52.930;9.266;2023-08-01T05:41:46;99294.78;;;16.85;82.16
76201;BME280;64981;52.930;9.266;2023-08-01T05:44:11;99302.78;;;16.85;81.83
76201;BME280;64981;52.930;9.266;2023-08-01T05:46:37;99301.84;;;16.91;81.42
76201;BME280;64981;52.930;9.266;2023-08-01T05:49:03;99301.25;;;16.89;81.65
76201;BME280;64981;52.930;9.266;2023-08-01T05:51:28;99296.25;;;16.92;81.10
76201;BME280;64981;52.930;9.266;2023-08-01T05:53:54;99266.06;;;16.75;80.81
76201;BME280;64981;52.930;9.266;2023-08-01T05:56:21;99303.69;;;16.90;81.34
76201;BME280;64981;52.930;9.266;2023-08-01T05:58:47;99296.25;;;16.92;80.86
76201;BME280;64981;52.930;9.266;2023-08-01T06:01:13;99297.41;;;16.96;80.17
76201;BME280;64981;52.930;9.266;2023-08-01T06:03:39;99308.53;;;17.05;80.28
76201;BME280;64981;52.930;9.266;2023-08-01T06:06:05;99308.38;;;17.11;79.57
76201;BME280;64981;52.930;9.266;2023-08-01T06:08:30;99304.00;;;17.05;79.81
76201;BME280;64981;52.930;9.266;2023-08-01T06:10:56;99317.81;;;17.02;79.82
76201;BME280;64981;52.930;9.266;2023-08-01T06:13:22;99304.47;;;17.02;79.59
76201;BME280;64981;52.930;9.266;2023-08-01T06:15:48;99313.03;;;17.04;79.77
76201;BME280;64981;52.930;9.266;2023-08-01T06:18:16;99312.81;;;17.06;79.91
76201;BME280;64981;52.930;9.266;2023-08-01T06:20:41;99300.19;;;17.01;80.08
76201;BME280;64981;52.930;9.266;2023-08-01T06:23:07;99302.22;;;17.11;79.45
76201;BME280;64981;52.930;9.266;2023-08-01T06:25:33;99316.50;;;17.16;79.21
76201;BME280;64981;52.930;9.266;2023-08-01T06:27:58;99314.47;;;17.23;78.91
76201;BME280;64981;52.930;9.266;2023-08-01T06:30:24;99319.56;;;17.25;78.70
76201;BME280;64981;52.930;9.266;2023-08-01T06:32:50;99320.38;;;17.26;78.84
76201;BME280;64981;52.930;9.266;2023-08-01T06:35:15;99327.59;;;17.25;79.62
76201;BME280;64981;52.930;9.266;2023-08-01T06:37:41;99325.00;;;17.30;79.46
76201;BME280;64981;52.930;9.266;2023-08-01T06:40:07;99321.94;;;17.38;79.52
76201;BME280;64981;52.930;9.266;2023-08-01T06:42:34;99322.59;;;17.45;78.68
76201;BME280;64981;52.930;9.266;2023-08-01T06:45:01;99331.75;;;17.49;78.02
76201;BME280;64981;52.930;9.266;2023-08-01T06:47:28;99331.44;;;17.62;77.27
76201;BME280;64981;52.930;9.266;2023-08-01T06:49:53;99330.28;;;17.58;77.64
76201;BME280;64981;52.930;9.266;2023-08-01T06:52:19;99336.44;;;17.59;78.16
76201;BME280;64981;52.930;9.266;2023-08-01T06:54:44;99331.50;;;17.67;76.63
76201;BME280;64981;52.930;9.266;2023-08-01T06:57:12;99335.41;;;17.60;77.57
76201;BME280;64981;52.930;9.266;2023-08-01T06:59:37;99338.63;;;17.62;77.22
76201;BME280;64981;52.930;9.266;2023-08-01T07:02:03;99330.28;;;17.58;77.19
76201;BME280;64981;52.930;9.266;2023-08-01T07:04:29;99331.59;;;17.56;77.65
76201;BME280;64981;52.930;9.266;2023-08-01T07:06:56;99333.63;;;17.65;76.61
76201;BME280;64981;52.930;9.266;2023-08-01T07:09:21;99335.97;;;17.62;77.07
76201;BME280;64981;52.930;9.266;2023-08-01T07:11:48;99331.50;;;17.67;76.96
76201;BME280;64981;52.930;9.266;2023-08-01T07:14:16;99324.31;;;17.68;76.88
76201;BME280;64981;52.930;9.266;2023-08-01T07:16:42;99336.47;;;17.92;75.38
76201;BME280;64981;52.930;9.266;2023-08-01T07:19:09;99337.88;;;17.95;75.46
76201;BME280;64981;52.930;9.266;2023-08-01T07:21:35;99339.56;;;18.01;75.61
76201;BME280;64981;52.930;9.266;2023-08-01T07:24:01;99339.78;;;17.99;76.02
76201;BME280;64981;52.930;9.266;2023-08-01T07:26:26;99333.69;;;18.20;75.29
76201;BME280;64981;52.930;9.266;2023-08-01T07:28:54;99333.88;;;18.14;74.25
76201;BME280;64981;52.930;9.266;2023-08-01T07:31:19;99338.25;;;18.20;73.74
76201;BME280;64981;52.930;9.266;2023-08-01T07:33:45;99313.94;;;18.05;73.62
76201;BME280;64981;52.930;9.266;2023-08-01T07:36:11;99343.66;;;18.25;73.58
76201;BME280;64981;52.930;9.266;2023-08-01T07:38:36;99335.31;;;18.05;75.18
76201;BME280;64981;52.930;9.266;2023-08-01T07:41:05;99331.72;;;17.94;76.01
76201;BME280;64981;52.930;9.266;2023-08-01T07:43:42;99333.47;;;18.05;75.46
76201;BME280;64981;52.930;9.266;2023-08-01T07:46:08;99331.59;;;18.22;72.61
76201;BME280;64981;52.930;9.266;2023-08-01T07:48:35;99339.50;;;18.34;72.85
76201;BME280;64981;52.930;9.266;2023-08-01T07:51:00;99343.31;;;18.38;71.95
76201;BME280;64981;52.930;9.266;2023-08-01T07:53:27;99336.88;;;18.39;71.27
76201;BME280;64981;52.930;9.266;2023-08-01T07:55:52;99352.34;;;18.54;71.39
76201;BME280;64981;52.930;9.266;2023-08-01T07:58:19;99347.63;;;18.61;70.38
76201;BME280;64981;52.930;9.266;2023-08-01T08:00:46;99353.72;;;18.56;71.49
76201;BME280;64981;52.930;9.266;2023-08-01T08:03:12;99353.94;;;18.55;71.36
76201;BME280;64981;52.930;9.266;2023-08-01T08:05:37;99353.53;;;18.63;70.24
76201;BME280;64981;52.930;9.266;2023-08-01T08:08:05;99352.59;;;18.74;70.85
76201;BME280;64981;52.930;9.266;2023-08-01T08:10:34;99357.28;;;18.84;69.15
76201;BME280;64981;52.930;9.266;2023-08-01T08:12:59;99354.38;;;18.85;69.03
76201;BME280;64981;52.930;9.266;2023-08-01T08:15:25;99354.47;;;18.73;69.22
76201;BME280;64981;52.930;9.266;2023-08-01T08:17:51;99355.50;;;18.89;69.02
76201;BME280;64981;52.930;9.266;2023-08-01T08:20:17;99344.72;;;18.84;68.66
76201;BME280;64981;52.930;9.266;2023-08-01T08:22:42;99364.31;;;18.90;69.19
76201;BME280;64981;52.930;9.266;2023-08-01T08:25:09;99359.72;;;19.07;68.84
76201;BME280;64981;52.930;9.266;2023-08-01T08:27:35;99362.59;;;19.00;69.52
76201;BME280;64981;52.930;9.266;2023-08-01T08:30:00;99359.22;;;19.10;69.54
76201;BME280;64981;52.930;9.266;2023-08-01T08:32:26;99354.78;;;19.20;68.87
76201;BME280;64981;52.930;9.266;2023-08-01T08:34:51;99367.88;;;19.17;68.68
76201;BME280;64981;52.930;9.266;2023-08-01T08:37:17;99361.34;;;19.08;68.21
76201;BME280;64981;52.930;9.266;2023-08-01T08:39:44;99354.50;;;18.95;68.36
76201;BME280;64981;52.930;9.266;2023-08-01T08:42:13;99347.19;;;19.12;67.36
76201;BME280;64981;52.930;9.266;2023-08-01T08:44:44;99317.28;;;18.94;67.08
76201;BME280;64981;52.930;9.266;2023-08-01T08:47:17;99346.03;;;19.03;68.09
76201;BME280;64981;52.930;9.266;2023-08-01T08:49:48;99317.75;;;18.86;68.86
76201;BME280;64981;52.930;9.266;2023-08-01T08:52:15;99351.72;;;19.12;67.63
76201;BME280;64981;52.930;9.266;2023-08-01T08:54:46;99367.72;;;19.28;67.07
76201;BME280;64981;52.930;9.266;2023-08-01T08:57:16;99375.13;;;19.21;66.92
76201;BME280;64981;52.930;9.266;2023-08-01T08:59:43;99338.81;;;19.04;68.02
76201;BME280;64981;52.930;9.266;2023-08-01T09:02:09;99368.34;;;19.36;67.09
76201;BME280;64981;52.930;9.266;2023-08-01T09:04:35;99365.88;;;19.34;66.83
76201;BME280;64981;52.930;9.266;2023-08-01T09:07:08;99374.31;;;19.21;66.75
76201;BME280;64981;52.930;9.266;2023-08-01T09:09:37;99320.94;;;19.09;65.64
76201;BME280;64981;52.930;9.266;2023-08-01T09:12:03;99325.97;;;19.06;67.02
76201;BME280;64981;52.930;9.266;2023-08-01T09:14:35;99373.19;;;19.39;66.94
76201;BME280;64981;52.930;9.266;2023-08-01T09:17:07;99360.75;;;19.54;64.79
76201;BME280;64981;52.930;9.266;2023-08-01T09:19:35;99371.47;;;19.54;64.26
76201;BME280;64981;52.930;9.266;2023-08-01T09:22:02;99362.50;;;19.44;66.43
76201;BME280;64981;52.930;9.266;2023-08-01T09:24:28;99360.00;;;19.59;64.10
76201;BME280;64981;52.930;9.266;2023-08-01T09:27:02;99334.03;;;19.59;63.46
76201;BME280;64981;52.930;9.266;2023-08-01T09:29:30;99346.41;;;19.65;64.50
76201;BME280;64981;52.930;9.266;2023-08-01T09:31:57;99361.34;;;19.61;66.07
76201;BME280;64981;52.930;9.266;2023-08-01T09:34:24;99369.50;;;19.71;63.74
76201;BME280;64981;52.930;9.266;2023-08-01T09:36:57;99371.22;;;19.82;62.82
76201;BME280;64981;52.930;9.266;2023-08-01T09:39:23;99342.28;;;19.84;61.44
76201;BME280;64981;52.930;9.266;2023-08-01T09:41:58;99364.84;;;19.94;60.62
76201;BME280;64981;52.930;9.266;2023-08-01T09:44:25;99349.34;;;19.96;60.20
76201;BME280;64981;52.930;9.266;2023-08-01T09:47:02;99354.69;;;19.96;60.50
76201;BME280;64981;52.930;9.266;2023-08-01T09:49:30;99359.56;;;19.99;61.03
76201;BME280;64981;52.930;9.266;2023-08-01T09:51:57;99358.97;;;19.97;61.62
76201;BME280;64981;52.930;9.266;2023-08-01T09:54:23;99355.03;;;20.04;60.97
76201;BME280;64981;52.930;9.266;2023-08-01T09:56:51;99339.69;;;19.95;61.04
76201;BME280;64981;52.930;9.266;2023-08-01T09:59:21;99361.13;;;19.95;62.25
76201;BME280;64981;52.930;9.266;2023-08-01T10:01:49;99341.13;;;19.75;64.24
76201;BME280;64981;52.930;9.266;2023-08-01T10:04:19;99349.19;;;19.80;65.27
76201;BME280;64981;52.930;9.266;2023-08-01T10:06:50;99344.69;;;19.54;66.47
76201;BME280;64981;52.930;9.266;2023-08-01T10:09:21;99350.03;;;19.54;67.22
76201;BME280;64981;52.930;9.266;2023-08-01T10:11:49;99337.25;;;19.61;66.86
76201;BME280;64981;52.930;9.266;2023-08-01T10:14:17;99340.41;;;19.58;65.62
76201;BME280;64981;52.930;9.266;2023-08-01T10:16:43;99339.72;;;19.68;65.63
76201;BME280;64981;52.930;9.266;2023-08-01T10:19:13;99344.28;;;19.67;65.40
76201;BME280;64981;52.930;9.266;2023-08-01T10:21:41;99316.03;;;19.55;64.05
76201;BME280;64981;52.930;9.266;2023-08-01T10:24:08;99339.63;;;19.58;63.20
76201;BME280;64981;52.930;9.266;2023-08-01T10:26:34;99352.16;;;19.79;64.29
76201;BME280;64981;52.930;9.266;2023-08-01T10:29:00;99342.97;;;20.07;63.31
76201;BME280;64981;52.930;9.266;2023-08-01T10:31:27;99341.09;;;20.07;61.63
76201;BME280;64981;52.930;9.266;2023-08-01T10:34:04;99339.97;;;19.98;62.30
76201;BME280;64981;52.930;9.266;2023-08-01T10:36:30;99331.03;;;19.88;61.20
76201;BME280;64981;52.930;9.266;2023-08-01T10:39:00;99352.81;;;19.96;60.13
76201;BME280;64981;52.930;9.266;2023-08-01T10:41:32;99334.13;;;20.06;60.36
76201;BME280;64981;52.930;9.266;2023-08-01T10:44:06;99348.94;;;20.14;61.91
76201;BME280;64981;52.930;9.266;2023-08-01T10:46:49;99358.13;;;20.28;60.61
76201;BME280;64981;52.930;9.266;2023-08-01T10:49:16;99354.38;;;20.24;60.94
76201;BME280;64981;52.930;9.266;2023-08-01T10:51:45;99354.94;;;20.31;60.43
76201;BME280;64981;52.930;9.266;2023-08-01T10:54:22;99363.50;;;20.28;60.13
76201;BME280;64981;52.930;9.266;2023-08-01T10:56:50;99355.31;;;20.45;57.98
76201;BME280;64981;52.930;9.266;2023-08-01T10:59:16;99358.19;;;20.38;58.75
76201;BME280;64981;52.930;9.266;2023-08-01T11:01:52;99351.47;;;20.35;58.85
76201;BME280;64981;52.930;9.266;2023-08-01T11:04:20;99353.34;;;20.35;59.64
76201;BME280;64981;52.930;9.266;2023-08-01T11:06:51;99338.03;;;20.30;60.15
76201;BME280;64981;52.930;9.266;2023-08-01T11:09:21;99334.66;;;20.45;61.15
76201;BME280;64981;52.930;9.266;2023-08-01T11:11:51;99346.53;;;20.59;58.67
76201;BME280;64981;52.930;9.266;2023-08-01T11:14:20;99339.56;;;20.58;57.13
76201;BME280;64981;52.930;9.266;2023-08-01T11:16:50;99347.09;;;20.61;57.35
76201;BME280;64981;52.930;9.266;2023-08-01T11:19:21;99349.31;;;20.79;56.85
76201;BME280;64981;52.930;9.266;2023-08-01T11:21:48;99356.84;;;20.87;57.05
76201;BME280;64981;52.930;9.266;2023-08-01T11:24:16;99356.59;;;20.89;57.48
76201;BME280;64981;52.930;9.266;2023-08-01T11:26:43;99364.94;;;20.92;57.48
76201;BME280;64981;52.930;9.266;2023-08-01T11:29:10;99366.00;;;20.97;57.85
76201;BME280;64981;52.930;9.266;2023-08-01T11:31:36;99362.03;;;21.04;57.58
76201;BME280;64981;52.930;9.266;2023-08-01T11:34:02;99365.00;;;21.08;57.35
76201;BME280;64981;52.930;9.266;2023-08-01T11:36:29;99379.78;;;21.15;57.70
76201;BME280;64981;52.930;9.266;2023-08-01T11:38:57;99373.44;;;21.36;56.68
76201;BME280;64981;52.930;9.266;2023-08-01T11:41:26;99355.94;;;21.34;55.50
76201;BME280;64981;52.930;9.266;2023-08-01T11:43:52;99370.47;;;21.53;55.56
76201;BME280;64981;52.930;9.266;2023-08-01T11:46:22;99366.72;;;21.39;56.13
76201;BME280;64981;52.930;9.266;2023-08-01T11:48:49;99379.88;;;21.46;56.17
76201;BME280;64981;52.930;9.266;2023-08-01T11:51:16;99390.06;;;21.33;56.34
76201;BME280;64981;52.930;9.266;2023-08-01T11:53:41;99378.53;;;21.33;56.36
76201;BME280;64981;52.930;9.266;2023-08-01T11:56:07;99380.94;;;21.34;56.08
76201;BME280;64981;52.930;9.266;2023-08-01T11:58:36;99387.63;;;21.32;56.23
76201;BME280;64981;52.930;9.266;2023-08-01T12:01:06;99382.31;;;21.52;55.34
76201;BME280;64981;52.930;9.266;2023-08-01T12:03:52;99382.59;;;21.61;55.24
76201;BME280;64981;52.930;9.266;2023-08-01T12:06:20;99379.31;;;21.38;56.16
76201;BME280;64981;52.930;9.266;2023-08-01T12:08:49;99389.53;;;21.36;56.12
76201;BME280;64981;52.930;9.266;2023-08-01T12:11:29;99385.38;;;21.09;56.28
76201;BME280;64981;52.930;9.266;2023-08-01T12:14:12;99378.03;;;20.84;57.40
76201;BME280;64981;52.930;9.266;2023-08-01T12:16:41;99375.91;;;20.86;57.40
76201;BME280;64981;52.930;9.266;2023-08-01T12:19:08;99389.88;;;20.93;57.81
76201;BME280;64981;52.930;9.266;2023-08-01T12:21:35;99385.09;;;21.00;56.88
76201;BME280;64981;52.930;9.266;2023-08-01T12:24:01;99408.88;;;20.81;58.86
76201;BME280;64981;52.930;9.266;2023-08-01T12:26:28;99402.16;;;20.74;61.35
76201;BME280;64981;52.930;9.266;2023-08-01T12:28:54;99419.84;;;20.70;62.85
76201;BME280;64981;52.930;9.266;2023-08-01T12:31:22;99415.75;;;20.57;63.41
76201;BME280;64981;52.930;9.266;2023-08-01T12:33:48;99423.19;;;20.45;64.41
76201;BME280;64981;52.930;9.266;2023-08-01T12:36:14;99406.59;;;20.53;63.09
76201;BME280;64981;52.930;9.266;2023-08-01T12:38:41;99415.44;;;20.49;64.04
76201;BME280;64981;52.930;9.266;2023-08-01T12:41:07;99412.53;;;20.60;63.08
76201;BME280;64981;52.930;9.266;2023-08-01T12:43:34;99412.47;;;20.50;64.78
76201;BME280;64981;52.930;9.266;2023-08-01T12:45:59;99431.41;;;20.75;63.09
76201;BME280;64981;52.930;9.266;2023-08-01T12:48:26;99431.19;;;20.82;61.55
76201;BME280;64981;52.930;9.266;2023-08-01T12:50:52;99421.47;;;20.71;61.13
76201;BME280;64981;52.930;9.266;2023-08-01T12:53:19;99429.59;;;20.86;60.84
76201;BME280;64981;52.930;9.266;2023-08-01T12:55:47;99421.41;;;20.61;61.41
76201;BME280;64981;52.930;9.266;2023-08-01T12:58:13;99419.25;;;20.63;61.66
76201;BME280;64981;52.930;9.266;2023-08-01T13:00:40;99419.72;;;20.50;63.57